Portada
METAR-TAF:

METAR-TAF

Aeroports :

Duixanbe, Tadjikistan

latitud: 38-33N, longitud: 068-47E, altitud: 803 m

Observació

L'informe es va fer fa 21 minuts, a les 13:30 UTC
Vent 4 kt amb direcció variable
Temperatura 16°C
Humitat 68%
Pressió 1019 hPa
Visibilitat 10 km o més
Escasses núvols a una alçada de 4800 ft, Cumulonimbus.
Cel cobert a una alçada de 12000 ft

METAR: UTDD 201330Z VRB02MPS 9999 FEW048CB OVC120 16/10 Q1019 R09/D TEMPO TS RMK QFE696/0928

Hora: 18:51 (13:51 UTC)

Pronòstic

L'informe es va fer fa 1 hora i 51 minuts, a les 12:00 UTC
Pronòstic vàlid del 20 a les 13 UTC al 21 a les 01 UTC
Vent 4 kt amb direcció variable
Visibilitat: 6000 m
Núvols disperses a una alçada de 4000 ft, Cumulonimbus.
Cel cobert a una alçada de 8000 ft
Temporalment
l' 20 a les 13 UTC al 21 a les 01 UTC
Visibilitat: 3100 m
tempesta, pluja, boirina

TAF: UTDD 201200Z 2013/2101 VRB02MPS 6000 SCT040CB OVC080 TEMPO 2013/2101 3100 -TSRA BR

Observacions i pronòstics meteorològics de més de 4000 aeroports (METAR i TAF).

Les estacions disponibles són els punts grocs i vermells al mapa.

Posi el ratolí al punt desitjat per veure el nom de l'estació.

Feu clic per veure les observacions i els pronòstics meteorològics.

Per canviar el mapa: feu clic els botons verds amb una creu de color negre per apropar; al botó verd amb un guió per allunyar la imatge; o en les fletxes verdes per a mapes adjacents.


METAR-TAF: